Time;durP1;ratioP1;P1;durP2;ratioP2;P2;SDS_P1;SDS_P2;PMS_P1;PMS_P2;Temp;Humidity;BMP_temperature;BMP_pressure;BME280_temperature;BME280_humidity;BME280_pressure;Samples;Min_cycle;Max_cycle;Signal;HPM_P1;HPM_P2
2023/12/22 00:01:07;;;;;;;3.73;0.90;;;;;;;11.25;61.23;96185.50;5032955;28;20190;-73
2023/12/22 00:03:33;;;;;;;2.30;1.40;;;;;;;11.25;61.90;96182.03;5019722;28;20202;-72
2023/12/22 00:05:58;;;;;;;6.03;1.63;;;;;;;11.27;62.24;96172.19;5031704;28;20195;-72
2023/12/22 00:08:24;;;;;;;7.50;1.97;;;;;;;11.28;62.55;96179.06;5047861;28;20571;-71
2023/12/22 00:10:50;;;;;;;4.20;1.97;;;;;;;11.31;62.74;96173.44;5027185;28;20277;-71
2023/12/22 00:13:16;;;;;;;18.70;7.10;;;;;;;11.36;63.27;96182.41;5023088;28;20187;-72
2023/12/22 00:15:44;;;;;;;13.07;4.80;;;;;;;11.37;63.04;96183.19;5035201;28;20493;-71
2023/12/22 00:18:13;;;;;;;9.50;2.47;;;;;;;11.43;62.69;96186.91;5017314;28;20266;-71
2023/12/22 00:20:38;;;;;;;7.10;1.67;;;;;;;11.44;62.76;96184.13;5028786;28;20430;-72
2023/12/22 00:23:04;;;;;;;4.10;1.70;;;;;;;11.43;62.56;96176.41;5032206;28;20603;-73
2023/12/22 00:25:29;;;;;;;8.17;2.07;;;;;;;11.42;61.99;96164.28;5032534;28;20624;-72
2023/12/22 00:27:54;;;;;;;9.10;1.97;;;;;;;11.38;61.25;96148.09;5022515;28;20215;-75
2023/12/22 00:30:20;;;;;;;6.57;1.80;;;;;;;11.37;60.53;96162.22;5031686;28;20203;-72
2023/12/22 00:32:45;;;;;;;5.60;1.53;;;;;;;11.29;60.13;96167.56;5025745;28;20299;-73
2023/12/22 00:35:11;;;;;;;9.60;1.80;;;;;;;11.24;59.12;96188.28;5040899;28;20644;-72
2023/12/22 00:37:36;;;;;;;6.93;1.60;;;;;;;11.37;59.42;96177.97;5021715;28;20211;-73
2023/12/22 00:40:05;;;;;;;3.87;1.43;;;;;;;11.39;59.08;96196.97;5020583;28;20868;-72
2023/12/22 00:42:30;;;;;;;3.13;1.50;;;;;;;11.41;59.17;96210.72;5035116;28;20614;-72
2023/12/22 00:44:56;;;;;;;3.60;1.40;;;;;;;11.42;58.64;96191.34;5030638;28;20463;-72
2023/12/22 00:47:21;;;;;;;3.37;1.40;;;;;;;11.48;58.93;96208.16;5026181;28;20314;-73
2023/12/22 00:49:47;;;;;;;4.53;1.50;;;;;;;11.50;58.96;96227.97;5038003;28;20223;-74
2023/12/22 00:52:12;;;;;;;4.53;1.57;;;;;;;11.43;59.03;96228.88;5023247;28;20275;-72
2023/12/22 00:54:38;;;;;;;2.80;1.40;;;;;;;11.34;58.96;96225.56;5026299;28;20234;-73
2023/12/22 00:57:04;;;;;;;6.40;1.70;;;;;;;11.34;59.33;96228.97;5024583;28;20208;-70
2023/12/22 00:59:29;;;;;;;3.20;1.47;;;;;;;11.32;59.25;96248.53;5030205;28;20207;-72
2023/12/22 01:01:55;;;;;;;7.30;1.47;;;;;;;11.44;59.15;96239.22;5027669;28;20572;-73
2023/12/22 01:04:20;;;;;;;3.53;1.40;;;;;;;11.52;59.23;96227.81;5028886;28;20193;-73
2023/12/22 01:06:46;;;;;;;4.10;1.40;;;;;;;11.48;58.76;96229.97;5034559;28;20305;-71
2023/12/22 01:09:11;;;;;;;5.80;1.63;;;;;;;11.45;58.63;96216.41;5034661;28;20195;-74
2023/12/22 01:11:37;;;;;;;8.73;1.60;;;;;;;11.40;58.78;96206.47;5031619;28;20274;-73
2023/12/22 01:14:02;;;;;;;3.53;1.50;;;;;;;11.44;58.51;96210.34;5023463;28;20231;-71
2023/12/22 01:16:28;;;;;;;5.40;1.43;;;;;;;11.38;58.38;96200.56;5022160;28;20257;-71
2023/12/22 01:18:53;;;;;;;3.53;1.50;;;;;;;11.37;58.56;96206.81;5024619;28;20204;-72
2023/12/22 01:21:19;;;;;;;3.07;1.40;;;;;;;11.36;58.46;96197.31;5023722;28;20222;-72
2023/12/22 01:23:44;;;;;;;4.30;1.30;;;;;;;11.29;58.10;96201.66;5030800;28;20195;-71
2023/12/22 01:26:09;;;;;;;3.67;1.07;;;;;;;11.36;57.90;96205.19;5018686;28;20279;-72
2023/12/22 01:28:35;;;;;;;5.40;1.67;;;;;;;11.40;58.04;96219.56;5022161;28;20600;-71
2023/12/22 01:31:01;;;;;;;7.60;1.30;;;;;;;11.37;58.46;96204.19;5031143;28;20195;-72
2023/12/22 01:33:26;;;;;;;6.70;1.60;;;;;;;11.39;58.26;96193.53;5027877;28;20198;-71
2023/12/22 01:35:52;;;;;;;6.23;1.43;;;;;;;11.31;57.62;96199.69;5030986;28;20200;-73
2023/12/22 01:38:18;;;;;;;4.60;1.30;;;;;;;11.31;57.32;96220.66;5018157;28;20219;-71
2023/12/22 01:40:43;;;;;;;5.50;1.57;;;;;;;11.21;56.21;96221.72;5033045;28;20238;-72
2023/12/22 01:43:09;;;;;;;8.63;1.37;;;;;;;11.28;56.34;96228.88;5024605;28;20198;-72
2023/12/22 01:45:35;;;;;;;2.70;1.13;;;;;;;11.32;56.09;96223.09;5032906;28;20715;-71
2023/12/22 01:48:00;;;;;;;6.23;1.03;;;;;;;11.37;55.79;96228.63;5029497;28;20241;-71
2023/12/22 01:50:26;;;;;;;2.43;0.70;;;;;;;11.36;55.42;96241.91;5041589;28;20186;-71
2023/12/22 01:52:52;;;;;;;6.40;1.10;;;;;;;11.40;54.83;96245.81;5032650;28;20191;-72
2023/12/22 01:55:18;;;;;;;3.37;1.60;;;;;;;11.34;54.44;96251.78;5025225;28;20192;-70
2023/12/22 01:57:44;;;;;;;4.43;1.30;;;;;;;11.33;54.25;96240.47;5033569;28;20469;-72
2023/12/22 02:00:10;;;;;;;3.43;0.93;;;;;;;11.35;53.88;96256.84;5025455;28;20179;-71
2023/12/22 02:02:38;;;;;;;2.90;1.60;;;;;;;11.35;54.56;96272.59;5026817;28;20434;-71
2023/12/22 02:05:04;;;;;;;2.93;0.87;;;;;;;11.24;54.23;96274.81;5023584;28;20438;-70
2023/12/22 02:07:29;;;;;;;1.50;0.87;;;;;;;11.18;54.65;96264.06;5021691;28;20462;-72
2023/12/22 02:09:55;;;;;;;5.07;0.80;;;;;;;11.18;54.33;96250.97;5022996;28;20457;-71
2023/12/22 02:12:20;;;;;;;3.73;0.70;;;;;;;11.26;54.39;96262.34;5033767;28;20218;-71
2023/12/22 02:14:46;;;;;;;2.10;0.87;;;;;;;11.22;53.99;96256.66;5039192;28;20286;-72
2023/12/22 02:17:23;;;;;;;3.43;1.10;;;;;;;11.21;54.07;96253.19;5027889;28;20268;-73
2023/12/22 02:19:48;;;;;;;3.20;0.80;;;;;;;11.24;53.90;96248.59;5024948;28;20199;-72
2023/12/22 02:22:14;;;;;;;3.50;1.10;;;;;;;11.25;53.79;96263.34;5028980;28;20457;-71
2023/12/22 02:24:40;;;;;;;2.00;1.00;;;;;;;11.23;53.77;96263.53;5022678;28;20731;-70
2023/12/22 02:27:14;;;;;;;4.20;1.10;;;;;;;11.16;53.57;96266.06;5025397;28;20303;-70
2023/12/22 02:30:27;;;;;;;3.63;0.97;;;;;;;11.04;53.33;96272.72;5018401;28;20475;-72
2023/12/22 02:32:56;;;;;;;4.43;1.10;;;;;;;11.15;53.36;96280.16;5016332;28;20443;-71
2023/12/22 02:35:24;;;;;;;6.03;1.70;;;;;;;11.01;53.57;96288.81;5005960;28;20457;-71
2023/12/22 02:37:51;;;;;;;4.90;1.73;;;;;;;11.13;53.41;96295.25;5029588;28;20461;-70
2023/12/22 02:40:17;;;;;;;4.10;2.27;;;;;;;11.17;53.63;96283.41;5021052;28;20430;-71
2023/12/22 02:42:42;;;;;;;5.73;2.33;;;;;;;11.18;53.46;96264.06;5028689;28;20444;-71
2023/12/22 02:45:14;;;;;;;5.50;1.60;;;;;;;11.17;53.32;96286.03;5016049;28;20935;-71
2023/12/22 02:47:39;;;;;;;5.73;2.20;;;;;;;11.12;53.21;96274.47;5014177;28;20218;-71
2023/12/22 02:50:06;;;;;;;4.27;1.40;;;;;;;11.07;53.23;96259.25;5034115;28;20446;-71
2023/12/22 02:52:32;;;;;;;2.70;1.70;;;;;;;11.13;53.24;96255.91;5031350;28;20563;-73
2023/12/22 02:54:57;;;;;;;4.20;1.30;;;;;;;11.13;53.37;96258.53;5028735;28;20445;-74
2023/12/22 02:57:23;;;;;;;4.60;1.50;;;;;;;11.09;53.39;96241.53;5036576;28;20454;-72
2023/12/22 02:59:48;;;;;;;3.40;1.60;;;;;;;11.13;53.55;96258.53;5032065;28;20218;-71
2023/12/22 03:02:14;;;;;;;2.37;1.40;;;;;;;11.16;53.04;96266.06;5041052;28;20203;-71
2023/12/22 03:04:40;;;;;;;3.83;1.67;;;;;;;11.15;53.34;96272.28;5034322;28;20183;-71
2023/12/22 03:07:05;;;;;;;6.47;1.40;;;;;;;11.16;53.03;96263.44;5036156;28;20611;-70
2023/12/22 03:09:32;;;;;;;3.47;1.63;;;;;;;11.19;53.16;96260.44;5035312;28;20202;-72
2023/12/22 03:12:01;;;;;;;3.73;1.13;;;;;;;11.17;52.93;96254.56;5033874;28;20195;-72
2023/12/22 03:14:29;;;;;;;2.57;1.03;;;;;;;11.21;53.19;96240.09;5029589;28;20496;-71
2023/12/22 03:16:55;;;;;;;4.43;1.37;;;;;;;11.22;53.07;96233.03;5044299;28;20469;-70
2023/12/22 03:19:22;;;;;;;6.60;1.30;;;;;;;11.21;52.70;96268.94;5030315;28;20533;-71
2023/12/22 03:21:48;;;;;;;3.20;1.37;;;;;;;11.12;52.59;96238.53;5046167;28;20220;-70
2023/12/22 03:24:13;;;;;;;3.10;1.10;;;;;;;11.23;52.04;96245.16;5044093;28;20438;-70
2023/12/22 03:26:39;;;;;;;3.47;1.20;;;;;;;11.23;51.59;96258.28;5043585;28;21560;-72
2023/12/22 03:29:05;;;;;;;4.27;0.93;;;;;;;11.23;51.92;96258.28;5031259;28;20204;-71
2023/12/22 03:31:30;;;;;;;5.57;1.20;;;;;;;11.24;51.57;96261.69;5032148;28;20191;-70
2023/12/22 03:33:56;;;;;;;3.10;1.33;;;;;;;11.30;51.63;96276.75;5040378;28;20422;-72
2023/12/22 03:36:21;;;;;;;5.73;1.40;;;;;;;11.08;51.95;96268.75;5034591;28;20225;-71
2023/12/22 03:38:47;;;;;;;6.27;1.63;;;;;;;11.18;51.73;96279.81;5045132;28;20275;-71
2023/12/22 03:41:12;;;;;;;6.30;2.10;;;;;;;11.26;51.74;96278.09;5031992;28;20673;-71
2023/12/22 03:43:38;;;;;;;3.10;1.20;;;;;;;11.25;52.05;96282.53;5044178;28;20191;-70
2023/12/22 03:46:03;;;;;;;4.10;1.50;;;;;;;11.17;51.71;96290.44;5032187;28;20194;-71
2023/12/22 03:48:28;;;;;;;1.90;1.20;;;;;;;11.18;51.68;96278.97;5044063;28;20591;-73
2023/12/22 03:50:54;;;;;;;3.03;1.57;;;;;;;11.11;52.00;96294.59;5043518;28;20305;-72
2023/12/22 03:53:19;;;;;;;4.30;1.97;;;;;;;11.22;51.82;96291.53;5039932;28;20191;-73
2023/12/22 03:55:45;;;;;;;4.13;1.40;;;;;;;11.21;52.39;96282.03;5047266;28;20187;-70
2023/12/22 03:58:10;;;;;;;3.73;1.50;;;;;;;11.21;52.72;96284.66;5035565;28;20200;-71
2023/12/22 04:00:36;;;;;;;3.63;1.30;;;;;;;11.14;53.65;96265.41;5047192;28;20528;-71
2023/12/22 04:03:01;;;;;;;3.03;1.23;;;;;;;11.20;53.58;96267.34;5033164;28;20195;-71
2023/12/22 04:05:27;;;;;;;7.03;1.67;;;;;;;11.13;54.17;96261.16;5036316;28;20199;-70
2023/12/22 04:07:53;;;;;;;10.43;1.63;;;;;;;11.15;54.45;96280.16;5034470;28;20207;-71
2023/12/22 04:10:18;;;;;;;4.97;1.57;;;;;;;11.20;54.83;96298.81;5038064;28;20200;-71
2023/12/22 04:12:44;;;;;;;6.77;1.40;;;;;;;11.12;55.24;96272.63;5046580;28;20226;-71
2023/12/22 04:15:09;;;;;;;3.33;1.43;;;;;;;11.16;55.16;96280.97;5034380;28;20294;-71
2023/12/22 04:17:35;;;;;;;5.90;1.47;;;;;;;11.10;55.70;96287.72;5043624;28;20210;-70
2023/12/22 04:20:01;;;;;;;4.27;1.63;;;;;;;11.12;56.11;96305.91;5042793;28;20190;-71
2023/12/22 04:22:26;;;;;;;5.80;1.87;;;;;;;11.13;56.57;96297.88;5037036;28;20314;-72
2023/12/22 04:24:52;;;;;;;5.57;1.70;;;;;;;11.06;57.39;96279.41;5040350;28;20270;-70
2023/12/22 04:27:17;;;;;;;8.00;1.87;;;;;;;10.98;57.66;96283.91;5033907;28;20239;-72
2023/12/22 04:29:43;;;;;;;9.13;2.50;;;;;;;10.95;57.40;96295.56;5040539;28;20262;-71
2023/12/22 04:32:09;;;;;;;6.33;1.83;;;;;;;10.98;57.65;96297.84;5038571;28;20190;-71
2023/12/22 04:34:34;;;;;;;5.40;1.60;;;;;;;10.81;56.94;96289.31;5043109;28;20445;-73
2023/12/22 04:37:00;;;;;;;3.43;1.30;;;;;;;10.78;56.72;96318.47;5026648;28;20204;-71
2023/12/22 04:39:25;;;;;;;3.90;1.90;;;;;;;10.83;56.65;96313.53;5041058;28;20795;-70
2023/12/22 04:41:51;;;;;;;2.47;1.00;;;;;;;10.90;56.46;96298.72;5038232;28;20203;-70
2023/12/22 04:44:16;;;;;;;6.73;1.60;;;;;;;10.90;56.26;96314.44;5022902;28;20195;-72
2023/12/22 04:46:41;;;;;;;3.10;1.50;;;;;;;10.96;56.25;96309.50;5020531;28;20460;-72
2023/12/22 04:49:07;;;;;;;5.87;1.40;;;;;;;10.93;55.77;96317.72;5042412;28;20191;-71
2023/12/22 04:51:33;;;;;;;3.60;0.90;;;;;;;10.85;55.92;96316.78;5032067;28;20242;-72
2023/12/22 04:53:58;;;;;;;4.67;1.10;;;;;;;10.96;55.80;96312.13;5032392;28;20277;-71
2023/12/22 04:56:24;;;;;;;6.53;1.43;;;;;;;10.99;55.91;96306.50;5038517;28;20199;-73
2023/12/22 04:58:50;;;;;;;3.40;0.93;;;;;;;10.93;55.34;96312.47;5032020;28;20274;-73
2023/12/22 05:01:15;;;;;;;1.93;0.93;;;;;;;10.95;55.08;96294.78;5032330;28;20275;-72
2023/12/22 05:03:41;;;;;;;6.30;1.40;;;;;;;10.97;55.14;96316.34;5025301;28;20506;-72
2023/12/22 05:06:07;;;;;;;3.80;1.03;;;;;;;10.99;54.93;96303.88;5032752;28;20207;-71
2023/12/22 05:08:32;;;;;;;5.10;0.93;;;;;;;10.74;54.61;96312.78;5030795;28;20470;-70
2023/12/22 05:10:58;;;;;;;5.87;1.23;;;;;;;10.92;54.54;96332.63;5039656;28;20222;-71
2023/12/22 05:13:23;;;;;;;10.53;1.73;;;;;;;10.95;54.02;96329.66;5032757;28;20195;-71
2023/12/22 05:15:49;;;;;;;5.80;1.63;;;;;;;10.93;54.14;96323.75;5032584;28;20200;-69
2023/12/22 05:18:14;;;;;;;5.17;1.80;;;;;;;10.73;54.49;96328.66;5038302;28;20203;-71
2023/12/22 05:20:40;;;;;;;4.77;1.40;;;;;;;10.88;53.92;96326.91;5033400;28;20671;-72
2023/12/22 05:23:05;;;;;;;5.47;1.80;;;;;;;10.94;53.88;96346.38;5037266;28;20219;-72
2023/12/22 05:25:30;;;;;;;7.97;1.73;;;;;;;11.02;54.08;96335.00;5038353;28;20249;-73
2023/12/22 05:27:57;;;;;;;11.37;2.00;;;;;;;11.07;53.50;96353.66;5030186;28;20599;-71
2023/12/22 05:30:22;;;;;;;13.03;2.77;;;;;;;11.05;53.49;96347.75;5028590;28;20734;-72
2023/12/22 05:32:48;;;;;;;14.23;2.50;;;;;;;11.09;53.56;96359.50;5029585;28;20441;-70
2023/12/22 05:35:13;;;;;;;9.23;2.07;;;;;;;11.11;53.54;96351.50;5030533;28;20199;-71
2023/12/22 05:37:39;;;;;;;7.03;1.80;;;;;;;11.14;53.92;96353.78;5028911;28;20239;-72
2023/12/22 05:40:06;;;;;;;7.87;1.90;;;;;;;11.18;54.39;96361.09;5029425;28;20684;-72
2023/12/22 05:42:32;;;;;;;7.97;1.90;;;;;;;11.20;53.83;96350.41;5035752;28;20197;-73
2023/12/22 05:44:58;;;;;;;12.40;2.23;;;;;;;11.21;53.76;96350.22;5035128;28;20434;-74
2023/12/22 05:47:23;;;;;;;7.77;1.77;;;;;;;11.13;53.64;96350.31;5029059;28;20220;-72
2023/12/22 05:49:49;;;;;;;8.00;1.90;;;;;;;11.06;53.69;96362.50;5029602;28;20442;-72
2023/12/22 05:52:14;;;;;;;10.27;2.20;;;;;;;11.08;53.00;96378.88;5032363;28;20195;-73
2023/12/22 05:54:40;;;;;;;7.87;1.87;;;;;;;11.14;52.96;96378.16;5035648;28;20278;-75
2023/12/22 05:57:06;;;;;;;8.70;1.93;;;;;;;11.10;53.06;96387.38;5043789;28;20203;-72
2023/12/22 05:59:32;;;;;;;11.83;2.40;;;;;;;11.10;52.77;96386.56;5036256;28;20245;-73
2023/12/22 06:01:58;;;;;;;8.00;2.10;;;;;;;11.06;53.13;96370.38;5035963;28;20438;-69
2023/12/22 06:04:24;;;;;;;11.70;1.87;;;;;;;11.12;52.87;96379.34;5034899;28;20439;-72
2023/12/22 06:06:50;;;;;;;5.70;2.07;;;;;;;11.18;52.71;96382.09;5025411;28;20611;-71
2023/12/22 06:09:17;;;;;;;8.50;2.00;;;;;;;11.18;52.88;96387.31;5041128;28;20437;-72
2023/12/22 06:11:42;;;;;;;9.77;2.20;;;;;;;11.05;53.01;96392.34;5039684;28;20728;-72
2023/12/22 06:14:08;;;;;;;9.20;2.00;;;;;;;11.13;52.51;96405.38;5039111;28;20521;-71
2023/12/22 06:16:33;;;;;;;7.43;1.90;;;;;;;11.17;52.58;96390.94;5029885;28;20196;-72
2023/12/22 06:18:59;;;;;;;7.87;1.77;;;;;;;11.20;52.59;96390.59;5009304;28;20603;-71
2023/12/22 06:21:24;;;;;;;4.87;1.73;;;;;;;11.21;52.71;96386.94;5038495;28;20202;-70
2023/12/22 06:23:50;;;;;;;16.53;2.50;;;;;;;11.27;52.50;96403.00;5035052;28;20590;-72
2023/12/22 06:26:15;;;;;;;11.40;1.90;;;;;;;11.24;52.62;96405.94;5033799;28;20575;-72
2023/12/22 06:28:41;;;;;;;9.80;2.67;;;;;;;11.18;52.43;96421.41;5035594;28;20218;-73
2023/12/22 06:31:07;;;;;;;8.57;1.90;;;;;;;11.27;52.31;96416.09;5034219;28;20195;-71
2023/12/22 06:33:33;;;;;;;6.43;2.10;;;;;;;11.34;52.72;96430.16;5043577;28;20237;-73
2023/12/22 06:35:58;;;;;;;7.03;2.23;;;;;;;11.33;52.35;96431.16;5041431;28;20437;-70
2023/12/22 06:38:23;;;;;;;8.03;1.83;;;;;;;11.34;52.40;96445.91;5044236;28;20294;-72
2023/12/22 06:40:50;;;;;;;14.97;1.80;;;;;;;11.20;52.03;96437.81;5034225;28;20196;-72
2023/12/22 06:43:16;;;;;;;4.20;2.00;;;;;;;11.23;52.11;96439.25;5032165;28;20222;-72
2023/12/22 06:45:41;;;;;;;8.93;2.20;;;;;;;11.25;51.93;96454.81;5013104;28;20474;-71
2023/12/22 06:48:07;;;;;;;9.30;2.10;;;;;;;11.27;52.09;96439.72;5029795;28;20273;-72
2023/12/22 06:50:32;;;;;;;10.63;2.20;;;;;;;11.27;51.84;96435.28;5036110;28;20196;-72
2023/12/22 06:52:58;;;;;;;10.73;1.73;;;;;;;11.26;51.82;96453.81;5037657;28;22138;-72
2023/12/22 06:55:23;;;;;;;7.57;2.50;;;;;;;11.36;51.66;96446.53;5037317;28;20191;-71
2023/12/22 06:57:49;;;;;;;7.13;1.77;;;;;;;11.30;52.28;96444.63;5014718;28;20315;-72
2023/12/22 07:00:15;;;;;;;6.93;1.83;;;;;;;11.30;52.30;96465.59;5029477;28;20191;-71
2023/12/22 07:02:40;;;;;;;5.20;1.60;;;;;;;11.27;52.81;96479.06;5031624;28;20202;-71
2023/12/22 07:05:09;;;;;;;4.07;1.40;;;;;;;11.22;53.62;96487.44;5040654;28;20438;-71
2023/12/22 07:07:35;;;;;;;5.17;1.50;;;;;;;11.24;54.33;96482.03;5027977;28;20219;-71
2023/12/22 07:10:00;;;;;;;6.17;1.70;;;;;;;11.22;54.60;96475.13;5035948;28;20484;-71
2023/12/22 07:12:26;;;;;;;7.47;2.07;;;;;;;11.25;54.88;96474.00;5009742;28;20469;-72
2023/12/22 07:14:51;;;;;;;6.43;1.60;;;;;;;11.27;54.80;96476.44;5044587;28;20195;-73
2023/12/22 07:17:17;;;;;;;4.97;1.60;;;;;;;11.27;55.02;96468.56;5033187;28;20207;-72
2023/12/22 07:19:42;;;;;;;10.40;2.43;;;;;;;11.23;55.27;96483.84;5036973;28;20214;-72
2023/12/22 07:22:08;;;;;;;5.07;1.60;;;;;;;11.17;55.54;96492.38;5042197;28;20233;-72
2023/12/22 07:24:33;;;;;;;7.90;1.63;;;;;;;11.26;55.54;96493.16;5039128;28;20209;-71
2023/12/22 07:26:59;;;;;;;7.50;2.00;;;;;;;11.25;55.43;96496.75;5044763;28;20603;-71
2023/12/22 07:29:24;;;;;;;7.57;2.00;;;;;;;11.06;55.76;96501.47;5036252;28;20242;-70
2023/12/22 07:31:50;;;;;;;4.53;1.40;;;;;;;11.12;55.65;96500.78;5041434;28;20282;-71
2023/12/22 07:34:17;;;;;;;7.40;1.97;;;;;;;11.16;55.63;96511.72;5027596;28;20210;-71
2023/12/22 07:36:42;;;;;;;5.23;1.30;;;;;;;11.06;55.52;96525.88;5027193;28;20191;-72
2023/12/22 07:39:09;;;;;;;4.80;1.43;;;;;;;11.05;56.12;96520.81;5037709;28;20432;-72
2023/12/22 07:41:34;;;;;;;6.13;2.13;;;;;;;11.07;55.98;96524.91;5027636;28;20214;-73
2023/12/22 07:44:01;;;;;;;4.87;1.63;;;;;;;11.16;56.39;96511.72;5013627;28;20876;-73
2023/12/22 07:46:28;;;;;;;5.60;1.93;;;;;;;11.12;56.50;96518.34;5019393;28;20596;-72
2023/12/22 07:48:54;;;;;;;7.60;2.37;;;;;;;11.14;56.41;96511.13;5030794;28;20453;-74
2023/12/22 07:51:20;;;;;;;10.77;1.67;;;;;;;11.04;57.21;96519.19;5033519;28;20517;-72
2023/12/22 07:53:45;;;;;;;6.33;1.60;;;;;;;11.10;57.23;96508.00;5039740;28;20537;-73
2023/12/22 07:56:11;;;;;;;5.47;1.77;;;;;;;11.10;57.54;96497.50;5024015;28;20526;-73
2023/12/22 07:58:36;;;;;;;7.57;2.10;;;;;;;10.97;58.44;96497.25;5031911;28;20269;-73
2023/12/22 08:01:02;;;;;;;4.27;1.50;;;;;;;10.83;59.44;96496.19;5008011;28;20195;-73
2023/12/22 08:03:28;;;;;;;4.60;1.50;;;;;;;10.96;58.86;96485.16;5028349;28;20713;-72
2023/12/22 08:05:54;;;;;;;7.50;1.50;;;;;;;11.01;59.07;96503.78;5023818;28;20468;-73
2023/12/22 08:08:19;;;;;;;6.07;2.13;;;;;;;11.06;59.19;96494.41;5043355;28;20226;-73
2023/12/22 08:10:45;;;;;;;7.40;1.90;;;;;;;10.97;59.52;96497.25;5034893;28;20187;-72
2023/12/22 08:13:10;;;;;;;5.33;1.90;;;;;;;10.99;59.51;96498.72;5029661;28;20191;-72
2023/12/22 08:15:35;;;;;;;8.83;1.67;;;;;;;11.00;59.50;96492.50;5034097;28;20283;-73
2023/12/22 08:18:01;;;;;;;7.63;1.77;;;;;;;10.98;59.75;96494.47;5032509;28;20231;-72
2023/12/22 08:20:26;;;;;;;5.37;1.70;;;;;;;10.98;59.85;96504.13;5033052;28;20222;-72
2023/12/22 08:22:52;;;;;;;5.90;1.63;;;;;;;11.00;60.13;96502.16;5031866;28;20612;-74
2023/12/22 08:25:20;;;;;;;7.93;2.10;;;;;;;10.97;60.13;96511.19;5036282;28;20213;-73
2023/12/22 08:27:46;;;;;;;13.40;2.13;;;;;;;10.87;60.43;96503.53;5014698;28;20780;-73
2023/12/22 08:30:12;;;;;;;13.87;2.27;;;;;;;10.85;60.03;96502.88;5030507;28;20441;-73
2023/12/22 08:32:37;;;;;;;11.37;3.93;;;;;;;10.83;59.96;96502.25;5024716;28;20242;-73
2023/12/22 08:35:04;;;;;;;10.00;2.40;;;;;;;10.73;60.43;96493.75;5014851;28;20498;-72
2023/12/22 08:37:30;;;;;;;11.30;2.30;;;;;;;10.79;59.82;96500.13;5030407;28;20203;-71
2023/12/22 08:39:55;;;;;;;6.60;2.20;;;;;;;10.86;59.71;96501.91;5027003;28;20949;-72
2023/12/22 08:42:22;;;;;;;6.17;2.00;;;;;;;10.87;59.34;96516.63;5043547;28;20427;-71
2023/12/22 08:44:48;;;;;;;9.50;2.20;;;;;;;10.89;59.11;96506.81;5045425;28;20290;-73
2023/12/22 08:47:13;;;;;;;10.93;2.60;;;;;;;10.89;58.98;96517.28;5028987;28;20469;-73
2023/12/22 08:49:38;;;;;;;12.70;2.40;;;;;;;10.97;58.89;96519.06;5032041;28;21157;-72
2023/12/22 08:52:04;;;;;;;10.73;3.43;;;;;;;10.91;59.01;96504.00;5033274;28;20295;-72
2023/12/22 08:54:30;;;;;;;10.77;2.47;;;;;;;10.98;58.74;96510.19;5037928;28;20179;-72
2023/12/22 08:56:56;;;;;;;10.40;2.13;;;;;;;11.01;58.85;96530.00;5040188;28;20247;-71
2023/12/22 08:59:21;;;;;;;12.40;2.37;;;;;;;10.92;59.14;96508.25;5039985;28;20433;-71
2023/12/22 09:01:46;;;;;;;11.53;2.50;;;;;;;11.00;58.71;96523.13;5030907;28;20589;-72
2023/12/22 09:04:12;;;;;;;4.73;1.70;;;;;;;10.98;58.39;96517.25;5039284;28;20618;-72
2023/12/22 09:06:38;;;;;;;13.13;2.13;;;;;;;10.97;58.73;96523.47;5033071;28;20199;-72
2023/12/22 09:09:03;;;;;;;9.33;2.60;;;;;;;11.01;58.34;96516.91;5030012;28;20445;-72
2023/12/22 09:11:29;;;;;;;9.00;2.40;;;;;;;10.97;57.55;96542.66;5039082;28;20245;-72
2023/12/22 09:13:55;;;;;;;8.63;2.17;;;;;;;11.02;57.65;96526.41;5029294;28;20484;-74
2023/12/22 09:16:22;;;;;;;9.20;2.40;;;;;;;11.03;57.25;96538.53;5030195;28;20212;-71
2023/12/22 09:18:49;;;;;;;14.03;3.13;;;;;;;11.07;56.81;96535.38;5029816;28;20599;-71
2023/12/22 09:21:15;;;;;;;8.33;2.20;;;;;;;11.10;56.63;96531.59;5044697;28;20426;-72
2023/12/22 09:23:44;;;;;;;12.57;2.90;;;;;;;11.05;55.50;96532.13;5034551;28;21171;-72
2023/12/22 09:26:09;;;;;;;11.43;2.93;;;;;;;11.08;55.34;96530.97;5041400;28;20219;-71
2023/12/22 09:28:35;;;;;;;8.37;2.20;;;;;;;11.15;54.71;96526.66;5035309;28;20476;-72
2023/12/22 09:31:02;;;;;;;12.57;3.40;;;;;;;11.25;54.87;96531.69;5024058;28;20418;-72
2023/12/22 09:33:27;;;;;;;10.00;2.90;;;;;;;11.21;54.34;96543.50;5031958;28;20279;-71
2023/12/22 09:35:52;;;;;;;9.60;2.53;;;;;;;11.27;54.05;96528.88;5037284;28;20518;-72
2023/12/22 09:38:18;;;;;;;11.70;3.10;;;;;;;11.24;53.90;96542.34;5031397;28;20211;-73
2023/12/22 09:40:43;;;;;;;12.70;2.87;;;;;;;11.20;54.09;96550.56;5033844;28;20253;-73
2023/12/22 09:43:09;;;;;;;12.63;2.87;;;;;;;11.29;54.14;96547.91;5025679;28;20184;-71
2023/12/22 09:45:34;;;;;;;10.33;2.80;;;;;;;11.36;53.93;96554.91;5035098;28;20221;-72
2023/12/22 09:48:01;;;;;;;13.37;2.60;;;;;;;11.42;54.11;96560.44;5034470;28;20223;-73
2023/12/22 09:50:27;;;;;;;11.73;3.03;;;;;;;11.33;53.81;96559.69;5036854;28;20191;-72
2023/12/22 09:52:52;;;;;;;17.20;2.47;;;;;;;11.43;53.87;96575.19;5038829;28;20460;-74
2023/12/22 09:55:18;;;;;;;13.70;2.47;;;;;;;11.43;54.00;96575.19;5031944;28;20430;-71
2023/12/22 09:57:45;;;;;;;16.93;3.10;;;;;;;11.39;53.96;96574.72;5037395;28;20215;-72
2023/12/22 10:00:12;;;;;;;15.10;3.10;;;;;;;11.32;53.98;96558.06;5033056;28;20548;-73
2023/12/22 10:02:39;;;;;;;11.00;2.63;;;;;;;11.47;53.96;96577.28;5041495;28;20430;-69
2023/12/22 10:05:04;;;;;;;17.53;3.57;;;;;;;11.50;53.80;96563.84;5034876;28;20861;-70
2023/12/22 10:07:33;;;;;;;18.70;3.47;;;;;;;11.55;53.41;96567.75;5022130;28;20466;-71
2023/12/22 10:10:00;;;;;;;15.67;3.23;;;;;;;11.45;53.64;96575.84;5026757;28;20211;-71
2023/12/22 10:12:27;;;;;;;12.03;2.63;;;;;;;11.47;53.67;96572.03;5035728;28;21033;-73
2023/12/22 10:14:53;;;;;;;13.67;2.97;;;;;;;11.52;53.76;96545.31;5028070;28;21059;-72
2023/12/22 10:17:19;;;;;;;13.03;3.07;;;;;;;11.50;53.30;96524.47;5032952;28;20450;-72
2023/12/22 10:19:44;;;;;;;13.53;3.00;;;;;;;11.50;53.40;96528.91;5024022;28;20469;-72
2023/12/22 10:22:10;;;;;;;10.23;2.67;;;;;;;11.58;53.24;96509.69;5040178;28;20606;-72
2023/12/22 10:24:42;;;;;;;11.00;2.77;;;;;;;11.52;53.19;96512.00;5042518;28;20566;-71
2023/12/22 10:27:07;;;;;;;9.93;2.37;;;;;;;11.59;53.06;96522.63;5040033;28;20211;-71
2023/12/22 10:29:33;;;;;;;17.87;2.60;;;;;;;11.49;53.42;96509.72;5032148;28;21068;-72
2023/12/22 10:32:01;;;;;;;11.17;2.20;;;;;;;11.57;52.93;96508.03;5038912;28;20325;-72
2023/12/22 10:34:35;;;;;;;12.73;2.60;;;;;;;11.61;53.12;96511.94;5043237;28;20527;-71
2023/12/22 10:37:01;;;;;;;14.70;3.00;;;;;;;11.63;53.29;96515.19;5019325;28;21255;-71
2023/12/22 10:39:30;;;;;;;16.63;3.17;;;;;;;11.64;53.71;96503.72;5042594;28;20248;-72
2023/12/22 10:41:59;;;;;;;8.63;2.27;;;;;;;11.67;53.87;96508.63;5029134;28;20231;-71
2023/12/22 10:44:25;;;;;;;11.83;2.63;;;;;;;11.61;54.20;96485.69;5028078;28;20427;-71
2023/12/22 10:46:51;;;;;;;13.87;2.67;;;;;;;11.64;54.07;96478.28;5020960;28;20455;-73
2023/12/22 10:49:17;;;;;;;14.03;2.27;;;;;;;11.52;54.95;96485.75;4999400;28;20458;-71
2023/12/22 10:51:42;;;;;;;9.97;2.70;;;;;;;11.41;55.65;96477.47;5030434;28;20926;-70
2023/12/22 10:54:08;;;;;;;8.90;1.70;;;;;;;11.54;56.15;96477.69;5041554;28;20276;-71
2023/12/22 10:56:34;;;;;;;11.33;1.67;;;;;;;11.56;55.86;96474.91;5038806;28;20263;-70
2023/12/22 10:58:59;;;;;;;10.60;2.40;;;;;;;11.55;56.15;96481.97;5033522;28;20211;-71
2023/12/22 11:01:29;;;;;;;3.67;1.80;;;;;;;11.53;56.53;96468.19;5036536;28;20201;-70
2023/12/22 11:03:58;;;;;;;6.30;1.77;;;;;;;11.53;56.65;96469.03;5030548;28;20195;-72
2023/12/22 11:06:26;;;;;;;8.33;1.63;;;;;;;11.55;56.91;96478.53;5036121;28;20466;-71
2023/12/22 11:08:53;;;;;;;8.70;1.80;;;;;;;11.59;56.77;96464.06;5035251;28;20523;-72
2023/12/22 11:11:33;;;;;;;11.33;2.57;;;;;;;11.62;57.20;96480.28;5027729;28;20441;-72
2023/12/22 11:14:02;;;;;;;3.07;1.50;;;;;;;11.49;57.54;96475.59;5025404;28;20422;-73
2023/12/22 11:16:29;;;;;;;7.03;1.63;;;;;;;11.59;57.69;96469.31;5033486;28;20542;-72
2023/12/22 11:18:56;;;;;;;5.07;1.50;;;;;;;11.58;57.87;96473.75;5039850;28;20458;-74
2023/12/22 11:21:25;;;;;;;6.57;1.60;;;;;;;11.52;58.29;96480.50;5039638;28;20567;-70
2023/12/22 11:23:52;;;;;;;5.50;1.30;;;;;;;11.29;59.17;96477.06;5040264;28;20506;-72
2023/12/22 11:26:18;;;;;;;4.40;1.63;;;;;;;11.41;59.27;96464.34;5036855;28;20435;-72